createdAt,value
2022-09-06T00:03:33.645Z,18.57
2022-09-06T00:07:36.634Z,18.55
2022-09-06T00:11:38.932Z,18.52
2022-09-06T00:15:41.379Z,18.53
2022-09-06T00:19:43.656Z,18.42
2022-09-06T00:23:46.037Z,18.37
2022-09-06T00:27:48.130Z,18.38
2022-09-06T00:31:50.902Z,18.38
2022-09-06T00:35:59.749Z,18.42
2022-09-06T00:40:02.271Z,18.39
2022-09-06T00:44:04.919Z,18.29
2022-09-06T00:48:07.414Z,18.19
2022-09-06T00:52:13.908Z,18.16
2022-09-06T00:56:16.637Z,18.22
2022-09-06T01:00:20.286Z,18.22
2022-09-06T01:04:23.427Z,18.20
2022-09-06T01:08:37.622Z,18.14
2022-09-06T01:12:58.818Z,18.09
2022-09-06T01:17:24.717Z,17.94
2022-09-06T01:21:45.966Z,17.95
2022-09-06T01:26:26.352Z,17.91
2022-09-06T01:30:28.740Z,17.94
2022-09-06T01:34:57.004Z,17.94
2022-09-06T01:38:59.264Z,17.87
2022-09-06T01:43:02.026Z,17.92
2022-09-06T01:47:19.314Z,17.88
2022-09-06T01:51:28.986Z,17.87
2022-09-06T01:56:02.243Z,17.84
2022-09-06T02:00:09.346Z,17.74
2022-09-06T02:04:28.654Z,17.62
2022-09-06T02:08:40.377Z,17.50
2022-09-06T02:12:51.257Z,17.51
2022-09-06T02:16:58.289Z,17.50
2022-09-06T02:21:03.186Z,17.52
2022-09-06T02:25:09.382Z,17.46
2022-09-06T02:29:11.888Z,17.53
2022-09-06T02:33:19.581Z,17.56
2022-09-06T02:37:24.285Z,17.54
2022-09-06T02:41:28.190Z,17.50
2022-09-06T02:45:30.283Z,17.50
2022-09-06T02:49:32.498Z,17.50
2022-09-06T02:53:35.884Z,17.44
2022-09-06T02:57:37.989Z,17.43
2022-09-06T03:01:40.215Z,17.38
2022-09-06T03:05:45.904Z,17.29
2022-09-06T03:09:48.003Z,17.17
2022-09-06T03:13:51.181Z,17.13
2022-09-06T03:17:57.564Z,17.18
2022-09-06T03:22:00.299Z,17.18
2022-09-06T03:26:02.430Z,17.17
2022-09-06T03:30:06.132Z,17.08
2022-09-06T03:34:11.112Z,16.84
2022-09-06T03:38:13.375Z,16.75
2022-09-06T03:42:15.578Z,16.89
2022-09-06T03:46:17.731Z,16.98
2022-09-06T03:50:19.885Z,16.98
2022-09-06T03:54:22.069Z,16.86
2022-09-06T03:58:25.310Z,16.85
2022-09-06T04:02:27.467Z,16.73
2022-09-06T04:06:29.631Z,16.76
2022-09-06T04:10:32.370Z,16.88
2022-09-06T04:14:34.437Z,16.91
2022-09-06T04:18:36.621Z,16.87
2022-09-06T04:22:38.908Z,16.90
2022-09-06T04:26:41.080Z,16.83
2022-09-06T04:30:43.186Z,16.84
2022-09-06T04:34:45.377Z,16.86
2022-09-06T04:38:47.598Z,16.89
2022-09-06T04:42:49.687Z,16.88
2022-09-06T04:47:09.433Z,16.88
2022-09-06T04:51:13.143Z,16.77
2022-09-06T04:55:15.293Z,16.72
2022-09-06T04:59:17.424Z,16.76
2022-09-06T05:03:19.580Z,16.75
2022-09-06T05:07:21.631Z,16.79
2022-09-06T05:11:24.418Z,16.85
2022-09-06T05:16:06.200Z,16.92
2022-09-06T05:20:10.335Z,16.95
2022-09-06T05:24:12.917Z,16.88
2022-09-06T05:28:16.199Z,16.78
2022-09-06T05:32:18.324Z,16.82
2022-09-06T05:36:23.347Z,16.87
2022-09-06T05:40:25.624Z,16.97
2022-09-06T05:44:27.812Z,17.16
2022-09-06T05:48:34.602Z,17.39
2022-09-06T05:52:39.788Z,17.63
2022-09-06T05:56:41.934Z,17.80
2022-09-06T06:00:44.044Z,17.94
2022-09-06T06:04:47.188Z,18.04
2022-09-06T06:08:49.586Z,18.17
2022-09-06T06:12:52.469Z,18.41
2022-09-06T06:16:55.152Z,18.57
2022-09-06T06:21:12.186Z,18.81
2022-09-06T06:25:14.501Z,18.98
2022-09-06T06:29:16.547Z,19.15
2022-09-06T06:33:18.748Z,19.29
2022-09-06T06:37:21.091Z,19.47
2022-09-06T06:41:26.382Z,19.66
2022-09-06T06:45:28.958Z,19.83
2022-09-06T06:49:31.293Z,20.00
2022-09-06T06:53:33.449Z,20.14
2022-09-06T06:57:35.890Z,20.31
2022-09-06T07:01:38.334Z,20.50
2022-09-06T07:14:28.598Z,21.16
2022-09-06T07:18:30.632Z,21.36
2022-09-06T07:22:33.254Z,21.52
2022-09-06T07:26:36.585Z,21.72
2022-09-06T07:30:39.411Z,21.92
2022-09-06T07:34:41.785Z,22.04
2022-09-06T07:38:50.525Z,22.24
2022-09-06T07:42:53.316Z,22.39
2022-09-06T07:51:22.488Z,22.71
2022-09-06T07:55:24.606Z,22.82
2022-09-06T07:59:27.641Z,22.99
2022-09-06T08:03:31.229Z,23.13
2022-09-06T08:07:40.696Z,23.24
2022-09-06T08:11:42.930Z,23.37
2022-09-06T08:15:44.964Z,23.58
2022-09-06T08:19:49.338Z,23.79
2022-09-06T08:23:54.958Z,24.02
2022-09-06T08:27:57.101Z,24.07
2022-09-06T08:31:59.300Z,24.23
2022-09-06T08:36:01.770Z,24.33
2022-09-06T08:40:04.487Z,24.43
2022-09-06T08:48:37.172Z,24.70
2022-09-06T08:57:40.678Z,24.97
2022-09-06T09:01:59.536Z,25.06
2022-09-06T09:06:05.418Z,25.25
2022-09-06T09:10:29.214Z,25.37
2022-09-06T09:14:36.256Z,25.55
2022-09-06T09:18:42.877Z,25.74
2022-09-06T09:22:45.688Z,25.87
2022-09-06T09:26:56.934Z,25.99
2022-09-06T09:30:59.123Z,26.16
2022-09-06T09:35:23.851Z,26.28
2022-09-06T09:39:35.999Z,26.44
2022-09-06T09:43:42.596Z,26.54
2022-09-06T09:47:44.906Z,26.78
2022-09-06T09:52:12.088Z,26.83
2022-09-06T09:56:15.678Z,26.93
2022-09-06T10:00:39.767Z,26.97
2022-09-06T10:04:49.815Z,27.09
2022-09-06T10:08:52.029Z,27.24
2022-09-06T10:13:20.603Z,27.24
2022-09-06T10:17:33.576Z,27.43
2022-09-06T10:21:35.913Z,27.43
2022-09-06T10:25:44.991Z,27.54
2022-09-06T10:30:01.545Z,27.55
2022-09-06T10:34:12.611Z,27.75
2022-09-06T10:38:35.731Z,27.79
2022-09-06T10:42:46.877Z,28.09
2022-09-06T10:46:55.600Z,28.19
2022-09-06T10:51:10.361Z,28.39
2022-09-06T10:55:16.813Z,28.40
2022-09-06T11:04:01.906Z,28.50
2022-09-06T11:12:42.179Z,28.83
2022-09-06T11:16:59.216Z,28.79
2022-09-06T11:21:39.024Z,28.92
2022-09-06T11:25:50.206Z,29.13
2022-09-06T11:29:56.696Z,29.25
2022-09-06T11:34:32.756Z,29.26
2022-09-06T11:38:36.051Z,29.25
2022-09-06T11:42:38.026Z,29.29
2022-09-06T11:46:43.299Z,29.71
2022-09-06T11:50:55.209Z,29.70
2022-09-06T11:54:57.691Z,29.70
2022-09-06T11:59:09.953Z,29.89
2022-09-06T12:08:34.037Z,30.01
2022-09-06T12:12:49.070Z,30.11
2022-09-06T12:17:09.878Z,30.25
2022-09-06T12:21:35.544Z,30.25
2022-09-06T12:25:37.643Z,30.19
2022-09-06T12:29:40.711Z,30.30
2022-09-06T12:33:44.250Z,30.39
2022-09-06T12:38:01.054Z,30.44
2022-09-06T12:42:07.358Z,30.36
2022-09-06T12:46:09.665Z,30.34
2022-09-06T12:50:19.651Z,30.44
2022-09-06T12:54:24.960Z,30.43
2022-09-06T12:58:30.378Z,30.41
2022-09-06T13:02:41.308Z,30.67
2022-09-06T13:06:50.217Z,30.79
2022-09-06T13:10:56.663Z,30.79
2022-09-06T13:15:14.662Z,30.82
2022-09-06T13:19:30.779Z,30.71
2022-09-06T13:23:42.847Z,30.96
2022-09-06T13:27:47.201Z,31.00
2022-09-06T13:31:52.387Z,31.27
2022-09-06T13:36:15.848Z,31.17
2022-09-06T13:40:53.878Z,31.10
2022-09-06T13:45:27.185Z,31.31
2022-09-06T13:49:30.214Z,31.47
2022-09-06T13:53:32.504Z,31.46
2022-09-06T13:57:51.752Z,31.66
2022-09-06T14:02:02.294Z,31.69
2022-09-06T14:06:04.892Z,31.76
2022-09-06T14:10:07.693Z,31.68
2022-09-06T14:14:10.108Z,31.81
2022-09-06T14:18:15.316Z,31.59
2022-09-06T14:22:21.883Z,31.55
2022-09-06T14:26:26.749Z,31.60
2022-09-06T14:30:31.999Z,31.86
2022-09-06T14:34:37.187Z,32.08
2022-09-06T14:38:42.353Z,32.08
2022-09-06T14:42:49.882Z,32.20
2022-09-06T14:46:58.390Z,32.12
2022-09-06T14:51:10.446Z,32.07
2022-09-06T14:55:17.540Z,32.16
2022-09-06T14:59:22.133Z,32.24
2022-09-06T15:03:27.170Z,32.18
2022-09-06T15:07:30.158Z,31.90
2022-09-06T15:11:39.647Z,31.92
2022-09-06T15:15:42.184Z,32.11
2022-09-06T15:19:45.092Z,32.44
2022-09-06T15:23:49.266Z,32.17
2022-09-06T15:27:52.663Z,32.17
2022-09-06T15:31:56.084Z,32.26
2022-09-06T15:36:00.817Z,32.49
2022-09-06T15:40:04.799Z,32.44
2022-09-06T15:44:13.475Z,32.51
2022-09-06T15:48:17.666Z,32.09
2022-09-06T15:52:20.334Z,31.70
2022-09-06T15:56:22.736Z,33.06
2022-09-06T16:00:25.327Z,33.94
2022-09-06T16:04:28.685Z,33.90
2022-09-06T16:08:31.452Z,35.22
2022-09-06T16:12:39.529Z,35.26
2022-09-06T16:16:45.308Z,33.99
2022-09-06T16:20:47.992Z,33.22
2022-09-06T16:24:51.375Z,32.09
2022-09-06T16:28:55.164Z,31.64
2022-09-06T16:33:00.378Z,31.25
2022-09-06T16:37:08.007Z,30.89
2022-09-06T16:41:11.239Z,30.73
2022-09-06T16:45:14.500Z,30.62
2022-09-06T16:49:17.778Z,30.42
2022-09-06T16:53:22.216Z,30.26
2022-09-06T16:57:25.576Z,30.17
2022-09-06T17:01:31.401Z,30.57
2022-09-06T17:05:36.995Z,30.79
2022-09-06T17:09:39.461Z,30.63
2022-09-06T17:13:43.734Z,30.47
2022-09-06T17:17:46.188Z,30.36
2022-09-06T17:21:48.944Z,30.05
2022-09-06T17:25:52.195Z,29.59
2022-09-06T17:29:54.519Z,29.17
2022-09-06T17:33:57.028Z,28.87
2022-09-06T17:37:59.758Z,28.55
2022-09-06T17:42:02.442Z,28.20
2022-09-06T17:46:05.048Z,27.90
2022-09-06T17:50:30.748Z,27.48
2022-09-06T17:54:33.037Z,27.22
2022-09-06T17:58:36.886Z,26.95
2022-09-06T18:02:39.077Z,26.77
2022-09-06T18:06:43.228Z,26.64
2022-09-06T18:10:45.601Z,26.42
2022-09-06T18:14:48.329Z,26.21
2022-09-06T18:18:58.921Z,26.04
2022-09-06T18:23:01.149Z,25.90
2022-09-06T18:27:03.338Z,25.78
2022-09-06T18:31:11.279Z,25.57
2022-09-06T18:35:14.046Z,25.29
2022-09-06T18:39:17.472Z,24.85
2022-09-06T18:43:20.357Z,24.70
2022-09-06T18:47:23.241Z,24.35
2022-09-06T18:51:26.008Z,24.27
2022-09-06T18:55:28.291Z,24.17
2022-09-06T18:59:30.590Z,24.23
2022-09-06T19:03:33.217Z,24.23
2022-09-06T19:07:35.545Z,24.21
2022-09-06T19:11:38.295Z,24.06
2022-09-06T19:15:43.822Z,23.98
2022-09-06T19:19:47.137Z,23.84
2022-09-06T19:23:57.175Z,23.88
2022-09-06T19:27:59.815Z,23.74
2022-09-06T19:32:02.267Z,23.70
2022-09-06T19:36:11.880Z,23.54
2022-09-06T19:40:14.778Z,23.38
2022-09-06T19:44:17.335Z,23.48
2022-09-06T19:48:20.052Z,23.31
2022-09-06T19:52:22.985Z,23.29
2022-09-06T19:56:30.107Z,23.20
2022-09-06T20:00:35.467Z,23.13
2022-09-06T20:04:39.183Z,23.07
2022-09-06T20:08:41.721Z,22.97
2022-09-06T20:12:44.663Z,23.01
2022-09-06T20:16:47.245Z,23.01
2022-09-06T20:20:59.394Z,23.01
2022-09-06T20:25:01.669Z,22.87
2022-09-06T20:29:05.155Z,22.76
2022-09-06T20:33:07.549Z,22.44
2022-09-06T20:37:10.517Z,22.20
2022-09-06T20:41:24.006Z,21.96
2022-09-06T20:45:27.428Z,21.67
2022-09-06T20:49:29.659Z,21.74
2022-09-06T20:53:32.226Z,21.71
2022-09-06T20:57:34.538Z,21.76
2022-09-06T21:01:40.539Z,21.81
2022-09-06T21:05:43.153Z,21.58
2022-09-06T21:09:45.442Z,21.36
2022-09-06T21:13:58.630Z,21.40
2022-09-06T21:18:01.514Z,21.29
2022-09-06T21:22:03.755Z,21.30
2022-09-06T21:26:11.966Z,21.28
2022-09-06T21:30:14.910Z,21.19
2022-09-06T21:34:17.458Z,21.15
2022-09-06T21:38:20.013Z,21.10
2022-09-06T21:42:22.291Z,21.01
2022-09-06T21:46:31.741Z,20.97
2022-09-06T21:50:34.871Z,20.91
2022-09-06T21:54:36.982Z,20.74
2022-09-06T21:58:39.552Z,20.63
2022-09-06T22:02:43.082Z,20.61
2022-09-06T22:06:47.673Z,20.60
2022-09-06T22:10:50.187Z,20.54
2022-09-06T22:14:52.275Z,20.34
2022-09-06T22:18:54.694Z,19.96
2022-09-06T22:22:56.886Z,19.99
2022-09-06T22:26:58.991Z,19.90
2022-09-06T22:31:01.446Z,19.96
2022-09-06T22:35:05.984Z,19.83
2022-09-06T22:39:29.012Z,19.59
2022-09-06T22:48:01.274Z,19.28
2022-09-06T22:52:34.012Z,19.07
2022-09-06T22:56:43.390Z,19.26
2022-09-06T23:00:45.912Z,19.27
2022-09-06T23:04:48.171Z,19.36
2022-09-06T23:08:50.663Z,19.41
2022-09-06T23:12:52.788Z,19.42
2022-09-06T23:16:54.919Z,19.40
2022-09-06T23:20:57.032Z,19.22
2022-09-06T23:24:59.100Z,19.13
2022-09-06T23:29:01.654Z,19.22
2022-09-06T23:33:03.846Z,19.23
2022-09-06T23:37:06.588Z,19.23
2022-09-06T23:41:10.564Z,19.23
2022-09-06T23:45:12.788Z,19.18
2022-09-06T23:49:15.328Z,19.07
2022-09-06T23:53:18.436Z,19.04
2022-09-06T23:57:20.609Z,18.97
